< < Back
Terminal Aerodrome Forecast


Current Version              Previous Versions:   1  2  3  4  5  6  7  8  9  

Terminal Aerodrome Forecast

820
FTUS42 KJAX 240236 AAA
TAFSSI
TAF AMD
KSSI 240236Z 2403/2424 07012KT P6SM VCSH SCT025 BKN035
     FM240400 08010KT P6SM SCT020 BKN028
     FM241400 09014G22KT P6SM SCT030
     FM241600 10015G25KT P6SM SCT020 BKN030=

Latest METAR

N/A

USA.gov is the U.S. government's official web portal to all federal, state and local government web resources and services.